EDT,Max TemperatureF,Mean TemperatureF,Min TemperatureF,Max Dew PointF,MeanDew PointF,Min DewpointF,Max Humidity, Mean Humidity, Min Humidity, Max Sea Level PressureIn, Mean Sea Level PressureIn, Min Sea Level PressureIn, Max VisibilityMiles, Mean VisibilityMiles, Min VisibilityMiles, Max Wind SpeedMPH, Mean Wind SpeedMPH, Max Gust SpeedMPH,PrecipitationIn, CloudCover, Events, WindDirDegrees
2013-10-1,75,65,55,58,55,52,93,70,46,30.10,30.05,30.00,10,4,0,15,5,21,0.00,5,Fog,247
2013-10-2,79,68,57,62,58,54,93,74,54,30.11,30.07,30.03,10,7,2,16,7,22,0.00,3,,253
2013-10-3,74,64,53,66,58,51,93,81,68,30.13,30.10,30.04,10,4,0,18,4,23,0.37,4,Fog-Rain-Thunderstorm,177
2013-10-4,79,70,61,66,62,59,97,78,58,30.13,30.08,30.03,10,3,0,14,6,17,0.04,5,Fog-Rain-Thunderstorm,240
2013-10-5,78,69,59,67,62,57,97,83,69,30.13,30.08,30.00,10,2,0,9,2,13,0.27,7,Fog-Rain-Thunderstorm,221
2013-10-6,83,73,63,64,62,56,100,72,43,30.03,29.94,29.78,10,6,0,16,5,23,0.01,5,Fog,132
2013-10-7,70,59,48,59,50,40,93,74,55,30.10,29.83,29.68,10,8,2,24,12,32,0.40,6,Rain,242
2013-10-8,66,55,43,46,42,37,100,67,34,30.33,30.24,30.12,10,6,0,13,4,18,0.00,2,Fog,354
2013-10-9,66,54,41,41,36,29,86,56,26,30.38,30.32,30.28,10,10,2,13,5,18,0.00,0,,97
2013-10-10,69,55,41,46,37,27,83,53,22,30.27,30.20,30.12,10,10,10,10,5,13,0.00,2,,83
2013-10-11,62,56,50,49,44,35,89,67,44,30.13,30.10,30.08,10,10,4,10,6,15,0.20,6,Rain,62
2013-10-12,74,62,49,54,47,36,83,65,46,30.21,30.15,30.10,10,10,10,13,6,18,0.00,2,,94
2013-10-13,64,60,55,56,53,43,93,77,61,30.31,30.28,30.18,10,7,1,14,6,18,0.16,7,Rain,122
2013-10-14,60,58,56,54,53,52,93,86,78,30.33,30.29,30.26,10,8,2,8,3,13,0.00,8,,62
2013-10-15,67,60,53,55,52,47,93,78,62,30.24,30.15,30.02,10,7,0,13,5,17,0.00,5,Fog,115
2013-10-16,62,59,55,58,53,47,86,74,62,30.01,29.93,29.86,10,7,1,16,7,22,0.48,7,Rain,201
2013-10-17,60,53,46,54,49,45,93,79,64,29.92,29.83,29.66,10,5,0,20,6,28,0.81,7,Fog-Rain-Thunderstorm,275
2013-10-18,59,53,46,45,40,36,86,65,43,29.99,29.92,29.83,10,10,8,23,11,29,0.00,6,,250
2013-10-19,54,47,39,45,38,35,86,73,59,29.96,29.87,29.72,10,10,7,24,8,31,0.07,5,,231
2013-10-20,55,46,36,37,35,34,85,66,46,30.04,29.96,29.87,10,9,4,21,10,26,0.00,4,,239
2013-10-21,63,52,41,35,33,29,70,49,27,30.07,29.98,29.84,10,10,10,20,7,25,0.00,1,,207
2013-10-22,57,46,35,45,36,26,92,67,42,29.90,29.85,29.80,10,9,4,20,9,26,0.19,5,Rain,258
2013-10-23,43,38,33,36,33,26,96,83,70,29.89,29.79,29.70,10,9,2,15,4,20,0.03,8,Rain-Snow,274
2013-10-24,44,38,31,32,30,24,92,71,49,30.09,29.95,29.84,10,8,1,17,12,23,0.01,7,Snow,253
2013-10-25,49,40,31,35,30,25,96,71,45,30.27,30.21,30.12,10,7,1,18,9,25,T,7,Snow,262
2013-10-26,47,39,31,30,25,21,78,58,38,30.21,30.02,29.89,10,10,10,28,13,35,0.01,4,,225
2013-10-27,43,38,32,36,32,27,96,77,57,30.12,30.00,29.90,10,9,2,16,7,21,0.03,6,Rain,257
2013-10-28,56,43,30,35,31,26,78,60,41,30.31,30.22,30.11,10,10,5,9,4,13,0.00,2,,316
2013-10-29,57,47,36,36,33,31,85,63,41,30.40,30.34,30.29,10,10,8,8,4,10,0.00,2,,61
2013-10-30,65,51,37,49,38,32,85,61,36,30.27,30.19,30.11,10,10,10,12,3,14,0.00,1,,183
2013-10-31,66,60,54,57,53,48,90,77,63,30.11,29.88,29.50,10,8,4,17,9,28,0.45,8,Rain,180